Oney Z — J8B4719 — position and weather

sailwx.info

Track history (hours):
 
Tides and Currents Weather Stations Pressure Air Temp Water Temp Dewpoint Dewpoint Depression Visibility Wind Speed Wind Dir Waves Ship Positions

Oney Z

Last reported at 2016-Jan-21 01:20 UTC. Time now 2016-Feb-10 00:40 UTC.
Position N 38°54' E 009°14'.
Warning: this ship's position is 19 days out of date.

Length 70 m; draft 4 m.

Type: Cargo ship. MMSI: 376099000.

Date/timePositionNaut miles runAvg speedWind from/ knotsBaromVisibWave heightAir tempDewpointWater temp
2016-Jan-21 01:20N 38°54' E 009°14'14 7.7
2016-Jan-20 23:33N 38°51' E 008°57'8 7.7
2016-Jan-20 22:33N 38°49' E 008°47'  
2016-Jan-16 20:33N 35°59' W 005°16'8 8.0
2016-Jan-16 19:33N 35°58' W 005°26'127 6.6
2016-Jan-16 00:26N 36°16' W 008°01'7 7.4
2016-Jan-15 23:32N 36°18' W 008°09'8 7.9
2016-Jan-15 22:32N 36°20' W 008°19'7 7.1
2016-Jan-15 21:32N 36°21' W 008°27'8 7.9
2016-Jan-15 20:32N 36°23' W 008°37'7 7.0
2016-Jan-15 19:32N 36°25' W 008°45'8 7.2
2016-Jan-15 18:29N 36°27' W 008°54'7 7.0
2016-Jan-15 17:32N 36°29' W 009°02'6 6.3
2016-Jan-15 16:32N 36°31' W 009°09'7 7.2
2016-Jan-15 15:32N 36°34' W 009°18'7 7.3
2016-Jan-15 14:32N 36°39' W 009°24'7 6.8
2016-Jan-15 13:32N 36°45' W 009°29'9 7.5
2016-Jan-15 12:23N 36°53' W 009°33'6 7.3
2016-Jan-15 11:32N 36°59' W 009°33'7 7.2
2016-Jan-15 10:32N 37°04' W 009°27'7 7.0
2016-Jan-15 09:32N 37°09' W 009°20'7 6.6
2016-Jan-15 08:32N 37°14' W 009°14'8 7.6
2016-Jan-15 07:32N 37°20' W 009°10'15 7.6
2016-Jan-15 05:32N 37°35' W 009°07'7 7.5
2016-Jan-15 04:33N 37°43' W 009°06'8 7.8
2016-Jan-15 03:33N 37°50' W 009°04'7 7.5
2016-Jan-15 02:33N 37°58' W 009°04'8 8.1
2016-Jan-15 01:34N 38°06' W 009°03'8 8.0
2016-Jan-15 00:32N 38°14' W 009°02'8 8.4
2016-Jan-14 23:32N 38°22' W 009°02'8 8.3
2016-Jan-14 22:33N 38°29' W 008°56'3 3.3
2016-Jan-14 21:32N 38°31' W 008°53'0 0.0
2016-Jan-14 20:32N 38°31' W 008°53'0 0.0
2016-Jan-14 19:32N 38°31' W 008°53'0 0.0
2016-Jan-14 18:32N 38°31' W 008°53'0 0.0
2016-Jan-14 17:32N 38°31' W 008°53'0 0.0
2016-Jan-14 16:32N 38°31' W 008°53'0 0.0
2016-Jan-14 15:29N 38°31' W 008°53'0 0.0
2016-Jan-14 14:32N 38°31' W 008°53'0 0.0
2016-Jan-14 13:20N 38°31' W 008°53'0 0.0
2016-Jan-14 12:32N 38°31' W 008°53'0 0.0
2016-Jan-14 11:26N 38°31' W 008°53'0 0.0
2016-Jan-14 10:32N 38°31' W 008°53'0 0.0
2016-Jan-14 09:32N 38°31' W 008°53'0 0.0
2016-Jan-14 08:32N 38°31' W 008°53'0 0.0
2016-Jan-14 07:32N 38°31' W 008°53'0 0.0
2016-Jan-14 06:29N 38°31' W 008°53'0 0.0
2016-Jan-14 05:32N 38°31' W 008°53'0 0.0
2016-Jan-14 04:32N 38°31' W 008°53'0 0.0
2016-Jan-14 03:32N 38°31' W 008°53'0 0.0
2016-Jan-14 02:32N 38°31' W 008°53'0 0.0
2016-Jan-13 22:11N 38°31' W 008°53'0 0.0
2016-Jan-13 21:29N 38°31' W 008°53'0 0.0
2016-Jan-13 20:20N 38°31' W 008°53'0 0.0
2016-Jan-13 19:32N 38°31' W 008°53'0 0.0
2016-Jan-13 18:29N 38°31' W 008°53'0 0.0
2016-Jan-13 17:32N 38°31' W 008°53'0 0.0
2016-Jan-13 16:32N 38°31' W 008°53'0 0.0
2016-Jan-13 15:26N 38°31' W 008°53'0 0.0
2016-Jan-13 14:32N 38°31' W 008°53'0 0.0
2016-Jan-13 13:32N 38°31' W 008°53'0 0.0
2016-Jan-13 12:29N 38°31' W 008°53'4 4.8
2016-Jan-13 11:33N 38°28' W 008°57'6 5.7
2016-Jan-13 10:32N 38°23' W 009°00'7 7.1
2016-Jan-13 09:33N 38°16' W 009°02'1010.3
2016-Jan-13 08:32N 38°06' W 009°05'7 7.3
2016-Jan-13 07:33N 37°59' W 009°07'7 7.0
2016-Jan-13 06:33N 37°52' W 009°09'8 8.1
2016-Jan-13 05:33N 37°44' W 009°11'8 8.4
2016-Jan-13 04:32N 37°36' W 009°13'8 8.2
2016-Jan-13 03:32N 37°28' W 009°15'7 7.2
2016-Jan-13 02:32N 37°20' W 009°16'8 8.4
2016-Jan-13 01:32N 37°12' W 009°18'7 7.4
2016-Jan-13 00:32N 37°05' W 009°19'8 7.3
2016-Jan-12 23:23N 36°56' W 009°19'7 7.3
2016-Jan-12 22:29N 36°51' W 009°15'6 6.8
2016-Jan-12 21:32N 36°46' W 009°09'7 6.6
2016-Jan-12 20:30N 36°42' W 009°02'7 7.1
2016-Jan-12 19:32N 36°37' W 008°57'7 6.8
2016-Jan-12 18:32N 36°30' W 008°54'7 7.4
2016-Jan-12 17:32N 36°23' W 008°51'7 6.8
2016-Jan-12 16:32N 36°17' W 008°47'  
Track history (hours):
 
Tides and Currents Weather Stations Pressure Air Temp Water Temp Dewpoint Dewpoint Depression Visibility Wind Speed Wind Dir Waves Ship Positions

Oney Z

Last reported at 2016-Jan-21 01:20 UTC. Time now 2016-Feb-10 00:40 UTC.
Position N 38°54' E 009°14'.
Warning: this ship's position is 19 days out of date.

Length 70 m; draft 4 m.

Type: Cargo ship. MMSI: 376099000.

Date/timePositionNaut miles runAvg speedWind from/ knotsBaromVisibWave heightAir tempDewpointWater temp
2016-Jan-21 01:20N 38°54' E 009°14'14 7.7
2016-Jan-20 23:33N 38°51' E 008°57'8 7.7
2016-Jan-20 22:33N 38°49' E 008°47'  
2016-Jan-16 20:33N 35°59' W 005°16'8 8.0
2016-Jan-16 19:33N 35°58' W 005°26'127 6.6
2016-Jan-16 00:26N 36°16' W 008°01'7 7.4
2016-Jan-15 23:32N 36°18' W 008°09'8 7.9
2016-Jan-15 22:32N 36°20' W 008°19'7 7.1
2016-Jan-15 21:32N 36°21' W 008°27'8 7.9
2016-Jan-15 20:32N 36°23' W 008°37'7 7.0
2016-Jan-15 19:32N 36°25' W 008°45'8 7.2
2016-Jan-15 18:29N 36°27' W 008°54'7 7.0
2016-Jan-15 17:32N 36°29' W 009°02'6 6.3
2016-Jan-15 16:32N 36°31' W 009°09'7 7.2
2016-Jan-15 15:32N 36°34' W 009°18'7 7.3
2016-Jan-15 14:32N 36°39' W 009°24'7 6.8
2016-Jan-15 13:32N 36°45' W 009°29'9 7.5
2016-Jan-15 12:23N 36°53' W 009°33'6 7.3
2016-Jan-15 11:32N 36°59' W 009°33'7 7.2
2016-Jan-15 10:32N 37°04' W 009°27'7 7.0
2016-Jan-15 09:32N 37°09' W 009°20'7 6.6
2016-Jan-15 08:32N 37°14' W 009°14'8 7.6
2016-Jan-15 07:32N 37°20' W 009°10'15 7.6
2016-Jan-15 05:32N 37°35' W 009°07'7 7.5
2016-Jan-15 04:33N 37°43' W 009°06'8 7.8
2016-Jan-15 03:33N 37°50' W 009°04'7 7.5
2016-Jan-15 02:33N 37°58' W 009°04'8 8.1
2016-Jan-15 01:34N 38°06' W 009°03'8 8.0
2016-Jan-15 00:32N 38°14' W 009°02'8 8.4
2016-Jan-14 23:32N 38°22' W 009°02'8 8.3
2016-Jan-14 22:33N 38°29' W 008°56'3 3.3
2016-Jan-14 21:32N 38°31' W 008°53'0 0.0
2016-Jan-14 20:32N 38°31' W 008°53'0 0.0
2016-Jan-14 19:32N 38°31' W 008°53'0 0.0
2016-Jan-14 18:32N 38°31' W 008°53'0 0.0
2016-Jan-14 17:32N 38°31' W 008°53'0 0.0
2016-Jan-14 16:32N 38°31' W 008°53'0 0.0
2016-Jan-14 15:29N 38°31' W 008°53'0 0.0
2016-Jan-14 14:32N 38°31' W 008°53'0 0.0
2016-Jan-14 13:20N 38°31' W 008°53'0 0.0
2016-Jan-14 12:32N 38°31' W 008°53'0 0.0
2016-Jan-14 11:26N 38°31' W 008°53'0 0.0
2016-Jan-14 10:32N 38°31' W 008°53'0 0.0
2016-Jan-14 09:32N 38°31' W 008°53'0 0.0
2016-Jan-14 08:32N 38°31' W 008°53'0 0.0
2016-Jan-14 07:32N 38°31' W 008°53'0 0.0
2016-Jan-14 06:29N 38°31' W 008°53'0 0.0
2016-Jan-14 05:32N 38°31' W 008°53'0 0.0
2016-Jan-14 04:32N 38°31' W 008°53'0 0.0
2016-Jan-14 03:32N 38°31' W 008°53'0 0.0
2016-Jan-14 02:32N 38°31' W 008°53'0 0.0
2016-Jan-13 22:11N 38°31' W 008°53'0 0.0
2016-Jan-13 21:29N 38°31' W 008°53'0 0.0
2016-Jan-13 20:20N 38°31' W 008°53'0 0.0
2016-Jan-13 19:32N 38°31' W 008°53'0 0.0
2016-Jan-13 18:29N 38°31' W 008°53'0 0.0
2016-Jan-13 17:32N 38°31' W 008°53'0 0.0
2016-Jan-13 16:32N 38°31' W 008°53'0 0.0
2016-Jan-13 15:26N 38°31' W 008°53'0 0.0
2016-Jan-13 14:32N 38°31' W 008°53'0 0.0
2016-Jan-13 13:32N 38°31' W 008°53'0 0.0
2016-Jan-13 12:29N 38°31' W 008°53'4 4.8
2016-Jan-13 11:33N 38°28' W 008°57'6 5.7
2016-Jan-13 10:32N 38°23' W 009°00'7 7.1
2016-Jan-13 09:33N 38°16' W 009°02'1010.3
2016-Jan-13 08:32N 38°06' W 009°05'7 7.3
2016-Jan-13 07:33N 37°59' W 009°07'7 7.0
2016-Jan-13 06:33N 37°52' W 009°09'8 8.1
2016-Jan-13 05:33N 37°44' W 009°11'8 8.4
2016-Jan-13 04:32N 37°36' W 009°13'8 8.2
2016-Jan-13 03:32N 37°28' W 009°15'7 7.2
2016-Jan-13 02:32N 37°20' W 009°16'8 8.4
2016-Jan-13 01:32N 37°12' W 009°18'7 7.4
2016-Jan-13 00:32N 37°05' W 009°19'8 7.3
2016-Jan-12 23:23N 36°56' W 009°19'7 7.3
2016-Jan-12 22:29N 36°51' W 009°15'6 6.8
2016-Jan-12 21:32N 36°46' W 009°09'7 6.6
2016-Jan-12 20:30N 36°42' W 009°02'7 7.1
2016-Jan-12 19:32N 36°37' W 008°57'7 6.8
2016-Jan-12 18:32N 36°30' W 008°54'7 7.4
2016-Jan-12 17:32N 36°23' W 008°51'7 6.8
2016-Jan-12 16:32N 36°17' W 008°47'  

Dump ship's entire track history